Time;durP1;ratioP1;P1;durP2;ratioP2;P2;SDS_P1;SDS_P2;PMS_P1;PMS_P2;Temp;Humidity;BMP_temperature;BMP_pressure;BME280_temperature;BME280_humidity;BME280_pressure;Samples;Min_cycle;Max_cycle;Signal;HPM_P1;HPM_P2
2021/09/29 00:00:27;;;;;;;4.60;2.20;;;;;;;;;;5017681;28;20185;-87
2021/09/29 00:02:53;;;;;;;2.42;1.92;;;;;;;;;;5016469;28;20185;-86
2021/09/29 00:05:20;;;;;;;1.88;1.63;;;;;;;;;;5017012;28;20200;-87
2021/09/29 00:07:46;;;;;;;7.43;2.13;;;;;;;;;;5017393;28;20194;-86
2021/09/29 00:10:12;;;;;;;1.45;1.35;;;;;;;;;;5017449;28;20185;-86
2021/09/29 00:12:39;;;;;;;1.70;1.63;;;;;;;;;;5017021;28;20166;-87
2021/09/29 00:15:10;;;;;;;1.30;0.70;;;;;;;;;;5017166;28;20608;-86
2021/09/29 00:17:37;;;;;;;1.38;0.93;;;;;;;;;;5017159;28;20198;-86
2021/09/29 00:20:04;;;;;;;1.70;1.60;;;;;;;;;;5016820;28;20180;-87
2021/09/29 00:22:33;;;;;;;1.45;1.20;;;;;;;;;;5016830;28;20174;-86
2021/09/29 00:24:59;;;;;;;7.40;1.23;;;;;;;;;;5016490;28;20217;-87
2021/09/29 00:27:25;;;;;;;3.20;0.95;;;;;;;;;;5016937;28;20255;-87
2021/09/29 00:29:54;;;;;;;1.13;1.02;;;;;;;;;;5016837;28;20177;-86
2021/09/29 00:32:20;;;;;;;2.10;1.00;;;;;;;;;;5017523;28;20543;-86
2021/09/29 00:34:46;;;;;;;1.05;1.00;;;;;;;;;;5017160;28;20173;-86
2021/09/29 00:37:12;;;;;;;1.30;1.23;;;;;;;;;;5017249;28;20204;-87
2021/09/29 00:39:38;;;;;;;1.60;1.50;;;;;;;;;;5016810;28;20177;-86
2021/09/29 00:42:05;;;;;;;1.55;1.45;;;;;;;;;;5016412;28;20170;-86
2021/09/29 00:44:31;;;;;;;3.20;1.23;;;;;;;;;;5079286;23;20227;-80
2021/09/29 00:46:57;;;;;;;1.30;1.10;;;;;;;;;;5007415;28;20194;-77
2021/09/29 00:49:23;;;;;;;2.92;1.88;;;;;;;;;;5007924;28;20241;-78
2021/09/29 00:51:50;;;;;;;2.35;1.55;;;;;;;;;;5007304;28;20175;-77
2021/09/29 00:54:18;;;;;;;1.20;1.05;;;;;;;;;;5004633;28;20190;-77
2021/09/29 00:56:46;;;;;;;2.03;1.30;;;;;;;;;;5005271;28;20269;-77
2021/09/29 00:59:12;;;;;;;1.90;1.70;;;;;;;;;;5005985;28;20261;-77
2021/09/29 01:01:38;;;;;;;2.10;1.40;;;;;;;;;;5004890;28;20179;-76
2021/09/29 01:04:05;;;;;;;0.95;0.90;;;;;;;;;;5005187;28;20720;-78
2021/09/29 01:06:34;;;;;;;1.17;1.08;;;;;;;;;;5006239;28;20571;-77
2021/09/29 01:09:04;;;;;;;1.30;1.20;;;;;;;;;;5005451;28;20206;-77
2021/09/29 01:11:30;;;;;;;2.05;1.63;;;;;;;;;;5007170;28;20170;-78
2021/09/29 01:14:02;;;;;;;2.83;1.42;;;;;;;;;;5008825;28;20175;-77
2021/09/29 01:16:31;;;;;;;2.28;2.00;;;;;;;;;;5009251;28;20295;-77
2021/09/29 01:18:58;;;;;;;1.98;1.60;;;;;;;;;;5009811;28;20174;-77
2021/09/29 01:21:28;;;;;;;2.78;2.30;;;;;;;;;;5009924;28;20170;-77
2021/09/29 01:24:02;;;;;;;2.38;2.05;;;;;;;;;;5009512;28;20602;-77
2021/09/29 01:26:30;;;;;;;3.28;1.20;;;;;;;;;;5009576;28;20198;-77
2021/09/29 01:28:58;;;;;;;2.08;1.42;;;;;;;;;;5009120;28;20232;-77
2021/09/29 01:31:24;;;;;;;3.15;1.45;;;;;;;;;;5010164;28;20225;-77
2021/09/29 01:33:50;;;;;;;3.42;2.20;;;;;;;;;;5010057;28;20182;-77
2021/09/29 01:36:18;;;;;;;3.95;2.03;;;;;;;;;;5010037;28;20215;-78
2021/09/29 01:38:47;;;;;;;1.95;1.85;;;;;;;;;;5009369;28;20201;-78
2021/09/29 01:41:13;;;;;;;2.55;1.80;;;;;;;;;;5009122;28;20202;-77
2021/09/29 01:43:39;;;;;;;2.63;1.52;;;;;;;;;;5010729;28;20796;-77
2021/09/29 01:46:08;;;;;;;1.48;1.33;;;;;;;;;;5010338;28;20190;-77
2021/09/29 01:48:43;;;;;;;2.25;1.38;;;;;;;;;;5008499;28;20202;-79
2021/09/29 01:51:10;;;;;;;1.38;0.93;;;;;;;;;;5009214;28;20177;-79
2021/09/29 01:53:36;;;;;;;1.25;0.90;;;;;;;;;;5009964;28;20201;-79
2021/09/29 01:56:02;;;;;;;1.15;1.05;;;;;;;;;;5008923;28;20191;-80
2021/09/29 01:58:34;;;;;;;2.38;2.17;;;;;;;;;;5007965;28;20178;-79
2021/09/29 02:01:01;;;;;;;1.25;1.08;;;;;;;;;;5008200;28;20269;-79
2021/09/29 02:03:27;;;;;;;2.70;2.50;;;;;;;;;;5008424;28;20174;-79
2021/09/29 02:05:54;;;;;;;1.02;0.95;;;;;;;;;;5009357;28;20202;-80
2021/09/29 02:08:20;;;;;;;1.48;1.35;;;;;;;;;;5008666;28;20741;-79
2021/09/29 02:10:46;;;;;;;3.00;1.67;;;;;;;;;;5008243;28;20181;-79
2021/09/29 02:13:12;;;;;;;1.17;1.08;;;;;;;;;;5007938;28;20162;-79
2021/09/29 02:15:38;;;;;;;2.45;1.20;;;;;;;;;;5006848;28;20174;-79
2021/09/29 02:18:04;;;;;;;1.63;1.58;;;;;;;;;;5024657;28;20230;-79
2021/09/29 02:20:30;;;;;;;1.20;0.70;;;;;;;;;;5008158;28;20242;-79
2021/09/29 02:22:56;;;;;;;1.05;0.70;;;;;;;;;;5006006;28;20573;-79
2021/09/29 02:25:24;;;;;;;3.45;2.20;;;;;;;;;;5005825;28;20209;-79
2021/09/29 02:27:50;;;;;;;1.73;1.10;;;;;;;;;;5007193;28;20233;-79
2021/09/29 02:30:16;;;;;;;2.65;0.85;;;;;;;;;;5009114;28;20175;-79
2021/09/29 02:32:42;;;;;;;1.48;1.13;;;;;;;;;;5008173;28;20178;-80
2021/09/29 02:35:09;;;;;;;2.08;1.10;;;;;;;;;;5007575;28;20178;-79
2021/09/29 02:37:35;;;;;;;1.70;1.25;;;;;;;;;;5005674;28;20200;-79
2021/09/29 02:40:01;;;;;;;0.90;0.70;;;;;;;;;;5007660;28;20185;-79
2021/09/29 02:42:28;;;;;;;2.60;1.40;;;;;;;;;;5008772;28;20206;-80
2021/09/29 02:44:55;;;;;;;2.78;1.67;;;;;;;;;;5008297;28;20194;-79
2021/09/29 02:47:21;;;;;;;1.27;1.20;;;;;;;;;;5007871;28;20238;-79
2021/09/29 02:49:47;;;;;;;1.27;1.15;;;;;;;;;;5007620;28;20638;-79
2021/09/29 02:52:13;;;;;;;1.00;0.93;;;;;;;;;;5007222;28;20171;-79
2021/09/29 02:54:39;;;;;;;1.20;1.13;;;;;;;;;;5007291;28;20182;-80
2021/09/29 02:57:05;;;;;;;4.00;1.35;;;;;;;;;;5008154;28;20588;-79
2021/09/29 02:59:31;;;;;;;1.33;1.23;;;;;;;;;;5008145;28;20182;-79
2021/09/29 03:01:57;;;;;;;4.07;1.40;;;;;;;;;;5007762;28;20206;-79
2021/09/29 03:04:23;;;;;;;2.05;1.92;;;;;;;;;;5008110;28;20174;-80
2021/09/29 03:06:49;;;;;;;1.23;1.13;;;;;;;;;;5008432;28;20195;-79
2021/09/29 03:09:15;;;;;;;3.83;1.63;;;;;;;;;;5007317;28;20225;-79
2021/09/29 03:11:42;;;;;;;2.03;1.50;;;;;;;;;;5006276;28;20171;-79
2021/09/29 03:14:08;;;;;;;2.42;2.15;;;;;;;;;;5005611;28;20702;-79
2021/09/29 03:16:34;;;;;;;1.40;1.30;;;;;;;;;;5005176;28;20194;-79
2021/09/29 03:19:00;;;;;;;2.08;1.20;;;;;;;;;;5004196;28;20537;-79
2021/09/29 03:21:27;;;;;;;5.18;2.25;;;;;;;;;;5004055;28;20178;-79
2021/09/29 03:23:53;;;;;;;1.23;1.00;;;;;;;;;;5003744;28;20269;-80
2021/09/29 03:26:19;;;;;;;0.75;0.73;;;;;;;;;;5003777;28;20225;-79
2021/09/29 03:28:45;;;;;;;1.45;1.13;;;;;;;;;;5003548;28;20221;-79
2021/09/29 03:31:12;;;;;;;3.85;0.98;;;;;;;;;;5003641;28;20181;-79
2021/09/29 03:33:38;;;;;;;1.08;0.98;;;;;;;;;;5002552;28;20177;-79
2021/09/29 03:36:04;;;;;;;1.65;1.23;;;;;;;;;;5002997;28;20613;-79
2021/09/29 03:38:30;;;;;;;1.20;1.00;;;;;;;;;;5002230;28;20181;-79
2021/09/29 03:40:56;;;;;;;1.67;1.15;;;;;;;;;;5002571;28;20317;-79
2021/09/29 03:43:22;;;;;;;1.00;0.75;;;;;;;;;;5003196;28;20196;-79
2021/09/29 03:45:49;;;;;;;2.15;1.98;;;;;;;;;;5003653;28;20202;-79
2021/09/29 03:48:15;;;;;;;1.63;1.10;;;;;;;;;;5003265;28;20202;-79
2021/09/29 03:50:41;;;;;;;2.33;1.48;;;;;;;;;;5003628;28;20170;-79
2021/09/29 03:53:07;;;;;;;1.35;1.27;;;;;;;;;;5004495;28;20562;-79
2021/09/29 03:55:33;;;;;;;0.95;0.85;;;;;;;;;;5004160;28;20171;-79
2021/09/29 03:57:59;;;;;;;4.30;1.80;;;;;;;;;;5003917;28;20183;-79
2021/09/29 04:00:26;;;;;;;1.10;0.98;;;;;;;;;;5004463;28;20182;-79
2021/09/29 04:02:52;;;;;;;3.15;1.67;;;;;;;;;;5004420;28;20241;-79
2021/09/29 04:05:18;;;;;;;1.50;1.42;;;;;;;;;;5005120;28;20178;-79
2021/09/29 04:07:44;;;;;;;3.28;1.95;;;;;;;;;;5005096;28;20289;-79
2021/09/29 04:10:11;;;;;;;0.40;0.40;;;;;;;;;;5004692;28;20197;-79
2021/09/29 04:12:39;;;;;;;2.15;0.90;;;;;;;;;;5004980;28;20170;-79
2021/09/29 04:15:06;;;;;;;2.33;1.10;;;;;;;;;;5005501;28;20248;-79
2021/09/29 04:17:32;;;;;;;1.63;1.00;;;;;;;;;;5005553;28;20194;-79
2021/09/29 04:19:58;;;;;;;1.40;0.98;;;;;;;;;;5010286;28;20664;-80
2021/09/29 04:22:24;;;;;;;1.70;1.55;;;;;;;;;;5011293;28;20194;-80
2021/09/29 04:24:50;;;;;;;2.38;2.20;;;;;;;;;;5012042;28;20662;-79
2021/09/29 04:27:16;;;;;;;2.40;1.50;;;;;;;;;;5012621;28;20229;-80
2021/09/29 04:29:43;;;;;;;2.17;2.00;;;;;;;;;;5012219;28;20182;-79
2021/09/29 04:32:09;;;;;;;1.58;0.98;;;;;;;;;;5010471;28;20181;-80
2021/09/29 04:34:36;;;;;;;3.33;0.98;;;;;;;;;;5009586;28;20170;-80
2021/09/29 04:37:04;;;;;;;1.08;0.98;;;;;;;;;;5009429;28;20274;-80
2021/09/29 04:39:30;;;;;;;1.92;1.25;;;;;;;;;;5009185;28;20178;-79
2021/09/29 04:41:56;;;;;;;1.80;0.90;;;;;;;;;;5008985;28;20177;-81
2021/09/29 04:44:22;;;;;;;1.60;1.13;;;;;;;;;;5009117;28;20210;-79
2021/09/29 04:46:48;;;;;;;1.23;1.05;;;;;;;;;;5009903;28;20202;-79
2021/09/29 04:49:14;;;;;;;1.25;1.17;;;;;;;;;;5007607;28;20232;-79
2021/09/29 04:51:40;;;;;;;1.08;1.02;;;;;;;;;;5009521;28;20181;-80
2021/09/29 04:54:06;;;;;;;1.27;0.77;;;;;;;;;;5009315;28;20176;-80
2021/09/29 04:56:32;;;;;;;0.93;0.88;;;;;;;;;;5010061;28;20629;-79
2021/09/29 04:58:59;;;;;;;1.15;1.13;;;;;;;;;;5008914;28;20186;-79
2021/09/29 05:01:26;;;;;;;1.17;1.10;;;;;;;;;;5007937;28;20185;-80
2021/09/29 05:03:52;;;;;;;1.73;0.95;;;;;;;;;;5006034;28;20262;-79
2021/09/29 05:06:19;;;;;;;2.47;1.20;;;;;;;;;;5008308;28;20613;-81
2021/09/29 05:08:47;;;;;;;2.00;1.15;;;;;;;;;;5010411;28;20737;-81
2021/09/29 05:11:20;;;;;;;0.93;0.82;;;;;;;;;;5010257;28;20170;-81
2021/09/29 05:13:46;;;;;;;1.55;1.52;;;;;;;;;;5008505;28;20189;-81
2021/09/29 05:16:13;;;;;;;3.42;1.63;;;;;;;;;;5024702;28;20197;-77
2021/09/29 05:18:39;;;;;;;0.70;0.60;;;;;;;;;;5008704;28;20198;-82
2021/09/29 05:21:06;;;;;;;0.70;0.60;;;;;;;;;;5009869;28;20202;-81
2021/09/29 05:23:32;;;;;;;0.65;0.57;;;;;;;;;;5009028;28;20224;-80
2021/09/29 05:25:59;;;;;;;1.20;1.00;;;;;;;;;;5005219;28;20194;-80
2021/09/29 05:28:30;;;;;;;1.48;1.38;;;;;;;;;;5003608;28;20225;-81
2021/09/29 05:30:56;;;;;;;0.40;0.40;;;;;;;;;;5005222;28;20280;-81
2021/09/29 05:33:22;;;;;;;1.23;0.73;;;;;;;;;;5005073;28;20170;-80
2021/09/29 05:35:49;;;;;;;0.68;0.63;;;;;;;;;;5005924;28;20191;-80
2021/09/29 05:38:15;;;;;;;1.17;1.10;;;;;;;;;;5005856;28;20170;-81
2021/09/29 05:40:42;;;;;;;2.40;1.98;;;;;;;;;;5009545;28;20174;-80
2021/09/29 05:43:09;;;;;;;1.02;0.85;;;;;;;;;;5008498;28;20186;-82
2021/09/29 05:45:35;;;;;;;0.95;0.80;;;;;;;;;;5010274;28;20208;-80
2021/09/29 05:48:01;;;;;;;1.25;1.05;;;;;;;;;;5010140;28;20198;-80
2021/09/29 05:50:27;;;;;;;0.70;0.60;;;;;;;;;;5025568;28;20651;-81
2021/09/29 05:52:53;;;;;;;3.35;1.50;;;;;;;;;;5005742;28;20269;-82
2021/09/29 05:55:19;;;;;;;1.25;1.15;;;;;;;;;;5006237;28;20194;-81
2021/09/29 05:57:46;;;;;;;1.38;1.27;;;;;;;;;;5007945;28;20549;-80
2021/09/29 06:00:12;;;;;;;1.55;0.80;;;;;;;;;;5004709;28;20178;-80
2021/09/29 06:02:39;;;;;;;0.60;0.50;;;;;;;;;;5008335;28;20614;-80
2021/09/29 06:05:05;;;;;;;0.60;0.50;;;;;;;;;;5003699;28;20178;-80
2021/09/29 06:07:31;;;;;;;0.88;0.77;;;;;;;;;;5007681;28;20213;-81
2021/09/29 06:09:57;;;;;;;0.95;0.88;;;;;;;;;;5011088;28;20163;-81
2021/09/29 06:12:24;;;;;;;0.50;0.50;;;;;;;;;;5012954;28;20587;-82
2021/09/29 06:14:52;;;;;;;0.60;0.50;;;;;;;;;;5012792;28;20233;-82
2021/09/29 06:19:48;;;;;;;1.25;1.05;;;;;;;;;;5020748;28;20206;-82
2021/09/29 06:22:15;;;;;;;0.80;0.70;;;;;;;;;;4993773;28;20177;-82
2021/09/29 06:24:42;;;;;;;1.05;0.63;;;;;;;;;;4989771;28;20175;-82
2021/09/29 06:27:08;;;;;;;0.85;0.75;;;;;;;;;;4999111;28;20211;-81
2021/09/29 06:29:39;;;;;;;0.80;0.55;;;;;;;;;;4985439;28;20205;-81
2021/09/29 06:32:19;;;;;;;1.52;1.42;;;;;;;;;;5002590;28;20159;-83
2021/09/29 06:34:46;;;;;;;1.10;1.00;;;;;;;;;;4979545;28;20226;-82
2021/09/29 06:37:12;;;;;;;0.93;0.82;;;;;;;;;;4979670;28;20191;-82
2021/09/29 06:39:38;;;;;;;2.47;1.13;;;;;;;;;;4979710;28;20179;-83
2021/09/29 06:42:04;;;;;;;0.60;0.50;;;;;;;;;;4979958;28;20171;-82
2021/09/29 06:44:31;;;;;;;1.52;1.20;;;;;;;;;;5066060;23;20581;-79
2021/09/29 06:46:57;;;;;;;0.82;0.75;;;;;;;;;;5012996;28;20194;-79
2021/09/29 06:49:23;;;;;;;2.05;1.27;;;;;;;;;;5019244;28;20206;-80
2021/09/29 06:51:49;;;;;;;1.02;0.80;;;;;;;;;;5017550;28;20257;-80
2021/09/29 06:54:15;;;;;;;1.35;1.27;;;;;;;;;;5001108;28;20175;-80
2021/09/29 06:56:41;;;;;;;1.20;0.80;;;;;;;;;;5016787;28;20190;-79
2021/09/29 06:59:07;;;;;;;0.70;0.65;;;;;;;;;;5017453;28;20175;-79
2021/09/29 07:01:34;;;;;;;0.50;0.50;;;;;;;;;;5015705;28;20186;-79
2021/09/29 07:04:00;;;;;;;2.75;1.83;;;;;;;;;;5016309;28;20185;-79
2021/09/29 07:06:26;;;;;;;1.10;0.95;;;;;;;;;;5015474;28;20194;-79
2021/09/29 07:08:53;;;;;;;0.75;0.68;;;;;;;;;;5015479;28;20202;-80
2021/09/29 07:11:19;;;;;;;0.55;0.50;;;;;;;;;;5015763;28;20215;-81
2021/09/29 07:13:46;;;;;;;1.98;1.48;;;;;;;;;;5016009;28;20175;-78
2021/09/29 07:16:12;;;;;;;0.55;0.50;;;;;;;;;;5017138;28;20191;-80
2021/09/29 07:18:39;;;;;;;0.60;0.50;;;;;;;;;;5016359;28;20166;-80
2021/09/29 07:21:06;;;;;;;1.00;0.90;;;;;;;;;;5016173;28;20202;-79
2021/09/29 07:23:37;;;;;;;0.90;0.80;;;;;;;;;;5007462;28;20274;-79
2021/09/29 07:26:03;;;;;;;0.82;0.70;;;;;;;;;;5001494;28;20210;-79
2021/09/29 07:28:29;;;;;;;0.65;0.57;;;;;;;;;;5016180;28;20202;-80
2021/09/29 07:30:56;;;;;;;0.40;0.40;;;;;;;;;;5016325;28;20171;-80
2021/09/29 07:33:22;;;;;;;0.70;0.60;;;;;;;;;;5015517;28;20175;-78
2021/09/29 07:35:50;;;;;;;1.05;1.00;;;;;;;;;;5015614;28;20187;-79
2021/09/29 07:38:16;;;;;;;1.20;1.10;;;;;;;;;;5016251;28;20248;-80
2021/09/29 07:40:42;;;;;;;0.93;0.55;;;;;;;;;;5016802;28;20179;-80
2021/09/29 07:43:09;;;;;;;1.17;1.08;;;;;;;;;;5016775;28;20543;-80
2021/09/29 07:45:35;;;;;;;0.95;0.60;;;;;;;;;;5016454;28;20241;-81
2021/09/29 07:48:01;;;;;;;0.98;0.85;;;;;;;;;;5016246;28;20722;-81
2021/09/29 07:50:27;;;;;;;1.45;0.90;;;;;;;;;;5016161;28;20171;-80
2021/09/29 07:52:53;;;;;;;0.82;0.75;;;;;;;;;;5016389;28;20588;-80
2021/09/29 07:55:19;;;;;;;2.35;2.25;;;;;;;;;;5015802;28;20206;-80
2021/09/29 07:57:46;;;;;;;0.90;0.68;;;;;;;;;;5015493;28;20281;-81
2021/09/29 08:00:13;;;;;;;0.75;0.60;;;;;;;;;;5016334;28;20205;-81
2021/09/29 08:02:41;;;;;;;0.75;0.60;;;;;;;;;;5017798;28;20171;-81
2021/09/29 08:05:07;;;;;;;0.70;0.50;;;;;;;;;;5015541;28;20175;-80
2021/09/29 08:07:33;;;;;;;0.60;0.50;;;;;;;;;;5015604;28;20266;-81
2021/09/29 08:09:59;;;;;;;0.73;0.52;;;;;;;;;;5014827;28;20224;-81
2021/09/29 08:12:26;;;;;;;0.82;0.73;;;;;;;;;;5015271;28;20178;-81
2021/09/29 08:14:52;;;;;;;0.88;0.80;;;;;;;;;;5015298;28;20264;-81
2021/09/29 08:17:19;;;;;;;0.50;0.50;;;;;;;;;;5014939;28;20201;-82
2021/09/29 08:19:45;;;;;;;0.50;0.50;;;;;;;;;;5014390;28;20177;-81
2021/09/29 08:22:12;;;;;;;1.42;1.05;;;;;;;;;;5013986;28;20229;-81
2021/09/29 08:25:10;;;;;;;0.40;0.40;;;;;;;;;;5014357;28;20186;-82
2021/09/29 08:30:54;;;;;;;0.70;0.63;;;;;;;;;;4982005;28;20179;-82
2021/09/29 08:33:42;;;;;;;0.50;0.50;;;;;;;;;;5014166;28;20166;-82
2021/09/29 08:38:57;;;;;;;0.82;0.77;;;;;;;;;;5015923;28;20185;-82
2021/09/29 08:44:06;;;;;;;0.55;0.50;;;;;;;;;;5015405;28;20190;-79
2021/09/29 08:46:44;;;;;;;0.40;0.40;;;;;;;;;;5015223;28;20202;-80
2021/09/29 09:16:45;;;;;;;0.40;0.40;;;;;;;;;;5016499;28;20249;-80
2021/09/29 09:19:12;;;;;;;0.50;0.45;;;;;;;;;;5015165;28;20635;-80
2021/09/29 09:21:51;;;;;;;0.60;0.50;;;;;;;;;;5015784;28;20175;-80
2021/09/29 09:24:25;;;;;;;0.82;0.73;;;;;;;;;;5014836;28;20309;-81
2021/09/29 09:26:58;;;;;;;1.50;0.88;;;;;;;;;;5014833;28;20202;-81
2021/09/29 09:29:25;;;;;;;0.50;0.50;;;;;;;;;;5014244;28;20221;-80
2021/09/29 09:31:51;;;;;;;1.15;0.75;;;;;;;;;;5014536;28;20170;-81
2021/09/29 09:34:17;;;;;;;1.38;0.77;;;;;;;;;;5015886;28;20181;-81
2021/09/29 09:36:47;;;;;;;1.02;0.50;;;;;;;;;;5018144;28;20226;-80
2021/09/29 09:39:20;;;;;;;1.13;0.80;;;;;;;;;;5017268;28;20179;-81
2021/09/29 09:41:47;;;;;;;0.57;0.52;;;;;;;;;;5017674;28;20193;-81
2021/09/29 09:44:13;;;;;;;0.65;0.60;;;;;;;;;;5017338;28;20194;-81
2021/09/29 09:46:39;;;;;;;0.95;0.50;;;;;;;;;;5018155;28;20221;-81
2021/09/29 09:49:11;;;;;;;0.40;0.40;;;;;;;;;;5017875;28;20202;-81
2021/09/29 09:51:59;;;;;;;0.40;0.40;;;;;;;;;;5017902;28;20428;-81
2021/09/29 09:54:39;;;;;;;0.60;0.43;;;;;;;;;;5018002;28;20217;-81
2021/09/29 09:57:21;;;;;;;0.60;0.50;;;;;;;;;;5018204;28;20198;-82
2021/09/29 09:59:54;;;;;;;0.70;0.60;;;;;;;;;;5017763;28;20202;-81
2021/09/29 10:02:20;;;;;;;0.40;0.40;;;;;;;;;;5017471;28;20170;-80
2021/09/29 10:04:47;;;;;;;2.67;2.05;;;;;;;;;;5017237;28;20181;-81
2021/09/29 10:07:13;;;;;;;1.08;0.85;;;;;;;;;;5017404;28;20350;-81
2021/09/29 10:09:49;;;;;;;1.50;0.60;;;;;;;;;;5017734;28;20218;-81
2021/09/29 10:23:10;;;;;;;1.00;0.70;;;;;;;;;;5018519;28;20202;-80
2021/09/29 10:28:35;;;;;;;0.60;0.50;;;;;;;;;;5018499;28;20302;-80
2021/09/29 10:31:28;;;;;;;1.70;0.70;;;;;;;;;;5016539;28;20166;-79
2021/09/29 10:34:12;;;;;;;0.73;0.55;;;;;;;;;;5016831;28;20175;-81
2021/09/29 10:42:27;;;;;;;4.10;0.70;;;;;;;;;;5019680;28;20213;-80
2021/09/29 10:47:34;;;;;;;0.60;0.55;;;;;;;;;;5018194;28;20605;-81
2021/09/29 10:50:39;;;;;;;2.15;1.10;;;;;;;;;;5017271;28;20165;-83
2021/09/29 11:04:45;;;;;;;0.65;0.60;;;;;;;;;;5020319;28;20188;-83
2021/09/29 11:29:24;;;;;;;0.70;0.60;;;;;;;;;;5020149;28;20197;-83
2021/09/29 11:31:56;;;;;;;0.43;0.40;;;;;;;;;;5018437;28;20176;-83
2021/09/29 11:34:26;;;;;;;0.40;0.40;;;;;;;;;;5018059;28;20529;-83
2021/09/29 11:37:18;;;;;;;0.50;0.40;;;;;;;;;;5018676;28;20667;-84
2021/09/29 12:10:26;;;;;;;1.25;0.50;;;21.80;56.20;;;;;;5019826;28;20629;-83
2021/09/29 12:12:53;;;;;;;0.40;0.30;;;21.70;60.10;;;;;;5016991;28;20181;-83
2021/09/29 12:15:19;;;;;;;2.45;0.70;;;21.80;57.70;;;;;;5018006;28;20221;-82
2021/09/29 12:17:49;;;;;;;1.05;0.60;;;21.70;58.50;;;;;;5018726;28;20591;-84
2021/09/29 12:20:20;;;;;;;1.30;0.40;;;21.80;59.30;;;;;;5017928;28;20158;-84
2021/09/29 12:22:50;;;;;;;0.50;0.40;;;22.10;58.10;;;;;;5018864;28;20159;-84
2021/09/29 12:25:43;;;;;;;0.50;0.40;;;22.40;57.90;;;;;;5017004;28;20635;-84
2021/09/29 12:36:27;;;;;;;0.93;0.77;;;22.90;57.00;;;;;;5018383;28;20187;-80
2021/09/29 12:38:53;;;;;;;0.40;0.40;;;23.20;54.90;;;;;;5016193;28;20688;-81
2021/09/29 12:41:19;;;;;;;0.50;0.40;;;23.30;53.70;;;;;;5015382;28;20206;-81
2021/09/29 12:46:16;;;;;;;0.60;0.50;;;22.90;53.80;;;;;;5106852;23;20279;-82
2021/09/29 12:48:43;;;;;;;0.50;0.43;;;22.70;54.30;;;;;;5040269;28;20202;-82
2021/09/29 12:51:13;;;;;;;2.47;0.60;;;22.30;55.80;;;;;;5039690;28;20536;-82
2021/09/29 12:53:50;;;;;;;0.60;0.50;;;22.20;56.80;;;;;;5038897;28;20402;-82
2021/09/29 12:56:17;;;;;;;0.40;0.40;;;22.10;55.70;;;;;;5040052;28;20224;-82
2021/09/29 12:58:46;;;;;;;4.78;0.50;;;22.10;56.30;;;;;;5038802;28;20712;-82
2021/09/29 13:01:12;;;;;;;0.80;0.70;;;22.10;57.00;;;;;;5039463;28;20181;-82
2021/09/29 13:03:39;;;;;;;0.40;0.40;;;22.10;56.60;;;;;;5040187;28;20235;-82
2021/09/29 13:06:05;;;;;;;0.50;0.43;;;21.90;56.60;;;;;;5039934;28;20286;-82
2021/09/29 13:08:31;;;;;;;0.60;0.40;;;21.70;57.50;;;;;;5040483;28;20194;-82
2021/09/29 13:10:58;;;;;;;0.50;0.50;;;21.50;58.80;;;;;;5043099;28;20243;-81
2021/09/29 13:13:25;;;;;;;0.60;0.50;;;21.40;59.30;;;;;;5043768;28;20174;-82
2021/09/29 13:15:57;;;;;;;0.70;0.65;;;21.40;59.40;;;;;;5043222;28;20198;-81
2021/09/29 13:21:37;;;;;;;0.40;0.40;;;21.60;60.20;;;;;;5044715;28;20197;-79
2021/09/29 13:23:39;;;;;;;0.50;0.40;;;22.00;60.10;;;;;;5032798;28;20184;-78
2021/09/29 13:26:37;;;;;;;0.52;0.50;;;22.40;57.50;;;;;;5042347;28;20193;-79
2021/09/29 13:37:16;;;;;;;0.50;0.40;;;21.80;59.30;;;;;;5038249;28;20240;-83
2021/09/29 13:39:44;;;;;;;0.40;0.40;;;21.50;60.00;;;;;;5035722;28;20181;-83
2021/09/29 13:42:09;;;;;;;0.45;0.45;;;21.20;61.40;;;;;;5035403;28;20264;-83
2021/09/29 13:44:35;;;;;;;0.40;0.40;;;21.00;64.20;;;;;;5036198;28;20597;-82
2021/09/29 13:47:01;;;;;;;1.37;0.50;;;20.70;67.80;;;;;;5038317;28;20444;-83
2021/09/29 13:49:27;;;;;;;0.50;0.50;;;20.10;72.30;;;;;;5036910;28;20497;-79
2021/09/29 13:51:56;;;;;;;0.60;0.50;;;19.60;76.20;;;;;;5036259;28;20208;-77
2021/09/29 13:54:23;;;;;;;0.77;0.70;;;19.20;82.30;;;;;;5035530;28;20413;-78
2021/09/29 14:29:43;;;;;;;0.40;0.40;;;17.80;87.80;;;;;;5028766;28;20285;-79
2021/09/29 14:32:06;;;;;;;0.55;0.50;;;17.70;88.10;;;;;;5017072;28;20179;-80
2021/09/29 14:34:32;;;;;;;0.40;0.40;;;17.60;86.70;;;;;;5049440;28;20162;-79
2021/09/29 14:36:58;;;;;;;0.50;0.50;;;17.30;85.80;;;;;;5035275;28;20201;-79
2021/09/29 14:39:25;;;;;;;0.98;0.65;;;17.00;88.00;;;;;;5035359;28;20650;-79
2021/09/29 14:41:51;;;;;;;0.40;0.40;;;16.90;90.60;;;;;;5034771;28;20196;-79
2021/09/29 14:44:18;;;;;;;0.40;0.40;;;;;;;;;;5034368;28;20178;-79
2021/09/29 14:46:44;;;;;;;0.60;0.50;;;;;;;;;;5033689;28;20209;-79
2021/09/29 14:49:10;;;;;;;0.40;0.40;;;;;;;;;;5034075;28;20658;-78
2021/09/29 14:51:36;;;;;;;0.40;0.40;;;;;;;;;;5032439;28;20203;-79
2021/09/29 14:54:03;;;;;;;0.40;0.30;;;;;;;;;;5023614;28;20179;-78
2021/09/29 14:56:29;;;;;;;0.40;0.40;;;;;;;;;;5033659;28;20200;-78
2021/09/29 14:58:56;;;;;;;0.75;0.52;;;;;;;;;;5026471;28;20644;-78
2021/09/29 15:01:23;;;;;;;0.40;0.38;;;;;;;;;;5014229;28;20261;-78
2021/09/29 15:03:50;;;;;;;0.40;0.40;;;;;;;;;;5014097;28;20194;-79
2021/09/29 15:06:16;;;;;;;0.40;0.40;;;;;;;;;;5014423;28;20201;-79
2021/09/29 15:08:46;;;;;;;0.40;0.40;;;;;;;;;;5014171;28;20194;-78
2021/09/29 15:11:14;;;;;;;0.40;0.40;;;;;;;;;;5014796;28;20186;-79
2021/09/29 15:13:51;;;;;;;0.60;0.55;;;;;;;;;;5033260;28;20177;-79
2021/09/29 15:16:28;;;;;;;0.60;0.50;;;;;;;;;;5035120;28;20565;-79
2021/09/29 15:19:13;;;;;;;0.40;0.40;;;;;;;;;;5035235;28;20174;-79
2021/09/29 15:32:30;;;;;;;0.40;0.40;;;;;;;;;;5035833;28;20615;-79
2021/09/29 15:48:48;;;;;;;0.40;0.40;;;;;;;;;;5036225;28;20552;-79
2021/09/29 15:51:39;;;;;;;0.40;0.40;;;;;;;;;;5034227;28;20177;-79
2021/09/29 15:54:18;;;;;;;0.40;0.40;;;;;;;;;;5034449;28;20166;-79
2021/09/29 15:57:06;;;;;;;0.40;0.40;;;;;;;;;;5034608;28;20685;-80
2021/09/29 16:10:50;;;;;;;0.40;0.40;;;;;;;;;;5036235;28;20575;-80
2021/09/29 16:31:29;;;;;;;1.02;0.75;;;;;;;;;;5036037;28;20165;-80
2021/09/29 16:33:59;;;;;;;1.30;0.52;;;;;;;;;;5033976;28;20170;-80
2021/09/29 16:36:25;;;;;;;0.40;0.40;;;;;;;;;;5034362;28;20190;-80
2021/09/29 16:38:52;;;;;;;1.35;0.70;;;;;;;;;;5033855;28;20178;-80
2021/09/29 16:41:19;;;;;;;1.05;0.60;;;;;;;;;;5034722;28;20331;-80
2021/09/29 16:43:46;;;;;;;0.60;0.60;;;;;;;;;;5033399;28;20173;-79
2021/09/29 16:46:14;;;;;;;1.30;0.60;;;;;;;;;;5033576;28;20228;-79
2021/09/29 16:48:40;;;;;;;0.50;0.50;;;;;;;;;;5033741;28;20198;-79
2021/09/29 16:53:48;;;;;;;3.35;0.77;;;;;;;;;;5035277;28;20157;-80
2021/09/29 16:56:15;;;;;;;0.73;0.50;;;;;;;;;;5033360;28;20193;-79
2021/09/29 16:58:56;;;;;;;0.50;0.40;;;;;;;;;;5034059;28;20265;-80
2021/09/29 17:01:22;;;;;;;0.40;0.40;;;;;;;;;;5033698;28;20551;-79
2021/09/29 17:03:48;;;;;;;0.40;0.40;;;;;;;;;;5033488;28;20169;-79
2021/09/29 17:06:15;;;;;;;0.40;0.40;;;;;;;;;;5033712;28;20194;-79
2021/09/29 17:08:41;;;;;;;0.40;0.40;;;;;;;;;;5033526;28;20197;-80
2021/09/29 17:11:09;;;;;;;0.50;0.50;;;;;;;;;;5033836;28;20626;-80
2021/09/29 17:13:42;;;;;;;0.55;0.50;;;;;;;;;;5033402;28;20170;-79
2021/09/29 17:16:14;;;;;;;0.40;0.40;;;;;;;;;;5033691;28;20667;-80
2021/09/29 17:18:42;;;;;;;0.40;0.40;;;;;;;;;;5033472;28;20173;-80
2021/09/29 17:21:09;;;;;;;0.40;0.40;;;;;;;;;;5033880;28;20181;-80
2021/09/29 17:23:35;;;;;;;0.40;0.40;;;;;;;;;;5033288;28;20174;-80
2021/09/29 17:26:02;;;;;;;0.40;0.40;;;;;;;;;;5033952;28;20200;-80
2021/09/29 17:28:28;;;;;;;0.40;0.40;;;;;;;;;;5033789;28;20856;-80
2021/09/29 17:31:06;;;;;;;0.40;0.40;;;;;;;;;;5034077;28;20526;-80
2021/09/29 17:33:43;;;;;;;0.40;0.40;;;;;;;;;;5032756;28;20245;-80
2021/09/29 17:54:11;;;;;;;0.98;0.57;;;;;;;;;;5035096;28;20161;-79
2021/09/29 17:56:37;;;;;;;0.93;0.82;;;;;;;;;;5036521;28;20296;-80
2021/09/29 17:59:04;;;;;;;0.40;0.40;;;;;;;;;;5036735;28;20546;-80
2021/09/29 18:01:31;;;;;;;1.00;0.60;;;;;;;;;;5036478;28;20608;-80
2021/09/29 18:08:56;;;;;;;4.65;0.80;;;;;;;;;;5036816;28;20201;-80
2021/09/29 18:11:22;;;;;;;0.40;0.40;;;;;;;;;;5036908;28;20170;-79
2021/09/29 18:13:50;;;;;;;0.60;0.60;;;;;;;;;;5036937;28;20177;-79
2021/09/29 18:16:15;;;;;;;0.40;0.40;;;14.70;95.00;;;;;;5036524;28;20259;-78
2021/09/29 18:18:41;;;;;;;0.50;0.50;;;14.70;94.20;;;;;;5037450;28;20178;-79
2021/09/29 18:21:07;;;;;;;0.87;0.77;;;14.60;94.40;;;;;;5037208;28;20205;-79
2021/09/29 18:23:33;;;;;;;1.17;0.57;;;14.60;93.70;;;;;;5037260;28;20412;-79
2021/09/29 18:25:58;;;;;;;0.70;0.60;;;14.60;93.50;;;;;;5037604;28;20493;-79
2021/09/29 18:28:24;;;;;;;0.80;0.60;;;14.50;93.60;;;;;;5037014;28;20451;-79
2021/09/29 18:30:54;;;;;;;0.87;0.50;;;14.50;94.00;;;;;;5036261;28;20502;-79
2021/09/29 18:33:23;;;;;;;0.60;0.50;;;14.50;93.50;;;;;;5036827;28;20436;-79
2021/09/29 18:35:54;;;;;;;0.70;0.60;;;14.50;93.20;;;;;;5036525;28;20666;-79
2021/09/29 18:38:27;;;;;;;0.40;0.40;;;14.60;92.90;;;;;;5036698;28;20174;-79
2021/09/29 18:40:56;;;;;;;0.40;0.40;;;14.60;92.90;;;;;;5036973;28;20178;-79
2021/09/29 18:43:23;;;;;;;0.63;0.52;;;14.60;92.90;;;;;;5037090;28;20174;-79
2021/09/29 18:45:49;;;;;;;0.73;0.63;;;14.60;91.70;;;;;;5102912;23;20249;-86
2021/09/29 18:48:15;;;;;;;0.80;0.60;;;14.60;91.90;;;;;;5034514;28;20210;-86